sensor_id;sensor_type;location;lat;lon;timestamp;P1;durP1;ratioP1;P2;durP2;ratioP2
25922;SDS011;13725;51.170;4.442;2023-02-04T00:01:23;26.25;;;11.18;;
25922;SDS011;13725;51.170;4.442;2023-02-04T00:03:48;34.25;;;11.25;;
25922;SDS011;13725;51.170;4.442;2023-02-04T00:06:14;27.90;;;11.18;;
25922;SDS011;13725;51.170;4.442;2023-02-04T00:08:40;31.33;;;11.98;;
25922;SDS011;13725;51.170;4.442;2023-02-04T00:11:05;38.17;;;11.88;;
25922;SDS011;13725;51.170;4.442;2023-02-04T00:13:31;27.23;;;11.43;;
25922;SDS011;13725;51.170;4.442;2023-02-04T00:15:57;34.42;;;11.43;;
25922;SDS011;13725;51.170;4.442;2023-02-04T00:18:22;23.95;;;10.48;;
25922;SDS011;13725;51.170;4.442;2023-02-04T00:20:48;28.33;;;12.07;;
25922;SDS011;13725;51.170;4.442;2023-02-04T00:23:14;29.13;;;11.35;;
25922;SDS011;13725;51.170;4.442;2023-02-04T00:25:39;32.33;;;11.95;;
25922;SDS011;13725;51.170;4.442;2023-02-04T00:28:05;31.83;;;11.60;;
25922;SDS011;13725;51.170;4.442;2023-02-04T00:30:31;32.40;;;11.23;;
25922;SDS011;13725;51.170;4.442;2023-02-04T00:32:57;40.35;;;16.02;;
25922;SDS011;13725;51.170;4.442;2023-02-04T00:35:23;50.30;;;18.75;;
25922;SDS011;13725;51.170;4.442;2023-02-04T00:37:51;53.42;;;20.02;;
25922;SDS011;13725;51.170;4.442;2023-02-04T00:40:17;57.58;;;21.80;;
25922;SDS011;13725;51.170;4.442;2023-02-04T00:42:43;61.47;;;23.52;;
25922;SDS011;13725;51.170;4.442;2023-02-04T00:45:09;57.03;;;22.77;;
25922;SDS011;13725;51.170;4.442;2023-02-04T00:47:37;49.13;;;21.95;;
25922;SDS011;13725;51.170;4.442;2023-02-04T00:50:02;54.30;;;22.75;;
25922;SDS011;13725;51.170;4.442;2023-02-04T00:52:28;57.58;;;21.80;;
25922;SDS011;13725;51.170;4.442;2023-02-04T00:54:54;74.80;;;27.27;;
25922;SDS011;13725;51.170;4.442;2023-02-04T00:57:20;72.55;;;26.23;;
25922;SDS011;13725;51.170;4.442;2023-02-04T00:59:46;72.18;;;26.38;;
25922;SDS011;13725;51.170;4.442;2023-02-04T01:02:11;63.60;;;26.60;;
25922;SDS011;13725;51.170;4.442;2023-02-04T01:04:37;70.85;;;25.90;;
25922;SDS011;13725;51.170;4.442;2023-02-04T01:07:03;64.50;;;24.92;;
25922;SDS011;13725;51.170;4.442;2023-02-04T01:09:29;54.90;;;22.33;;
25922;SDS011;13725;51.170;4.442;2023-02-04T01:11:55;69.03;;;24.45;;
25922;SDS011;13725;51.170;4.442;2023-02-04T01:14:21;60.90;;;23.20;;
25922;SDS011;13725;51.170;4.442;2023-02-04T01:16:46;63.03;;;24.50;;
25922;SDS011;13725;51.170;4.442;2023-02-04T01:19:12;60.58;;;22.45;;
25922;SDS011;13725;51.170;4.442;2023-02-04T01:21:38;62.13;;;23.42;;
25922;SDS011;13725;51.170;4.442;2023-02-04T01:24:03;53.05;;;22.65;;
25922;SDS011;13725;51.170;4.442;2023-02-04T01:26:29;52.67;;;21.52;;
25922;SDS011;13725;51.170;4.442;2023-02-04T01:28:55;48.83;;;22.33;;
25922;SDS011;13725;51.170;4.442;2023-02-04T01:31:23;53.65;;;21.10;;
25922;SDS011;13725;51.170;4.442;2023-02-04T01:33:48;59.00;;;23.15;;
25922;SDS011;13725;51.170;4.442;2023-02-04T01:36:14;50.13;;;21.90;;
25922;SDS011;13725;51.170;4.442;2023-02-04T01:38:46;49.30;;;22.33;;
25922;SDS011;13725;51.170;4.442;2023-02-04T01:41:13;51.75;;;21.75;;
25922;SDS011;13725;51.170;4.442;2023-02-04T01:43:40;46.88;;;19.33;;
25922;SDS011;13725;51.170;4.442;2023-02-04T01:46:06;40.92;;;18.67;;
25922;SDS011;13725;51.170;4.442;2023-02-04T01:48:33;50.15;;;18.98;;
25922;SDS011;13725;51.170;4.442;2023-02-04T01:51:01;52.78;;;19.38;;
25922;SDS011;13725;51.170;4.442;2023-02-04T01:53:29;49.30;;;19.90;;
25922;SDS011;13725;51.170;4.442;2023-02-04T01:55:56;52.50;;;18.63;;
25922;SDS011;13725;51.170;4.442;2023-02-04T01:58:21;48.00;;;19.38;;
25922;SDS011;13725;51.170;4.442;2023-02-04T02:00:48;43.90;;;19.30;;
25922;SDS011;13725;51.170;4.442;2023-02-04T02:03:13;44.45;;;17.88;;
25922;SDS011;13725;51.170;4.442;2023-02-04T02:05:40;45.90;;;18.52;;
25922;SDS011;13725;51.170;4.442;2023-02-04T02:08:13;43.40;;;18.42;;
25922;SDS011;13725;51.170;4.442;2023-02-04T02:10:40;50.42;;;18.85;;
25922;SDS011;13725;51.170;4.442;2023-02-04T02:13:09;50.67;;;18.55;;
25922;SDS011;13725;51.170;4.442;2023-02-04T02:15:38;51.72;;;19.60;;
25922;SDS011;13725;51.170;4.442;2023-02-04T02:18:04;45.53;;;18.65;;
25922;SDS011;13725;51.170;4.442;2023-02-04T02:20:30;51.47;;;19.67;;
25922;SDS011;13725;51.170;4.442;2023-02-04T02:23:11;52.85;;;20.73;;
25922;SDS011;13725;51.170;4.442;2023-02-04T02:25:46;49.15;;;20.20;;
25922;SDS011;13725;51.170;4.442;2023-02-04T02:28:14;42.35;;;18.75;;
25922;SDS011;13725;51.170;4.442;2023-02-04T02:30:42;46.13;;;19.92;;
25922;SDS011;13725;51.170;4.442;2023-02-04T02:33:13;48.50;;;19.88;;
25922;SDS011;13725;51.170;4.442;2023-02-04T02:35:42;60.50;;;20.50;;
25922;SDS011;13725;51.170;4.442;2023-02-04T02:38:12;55.20;;;19.98;;
25922;SDS011;13725;51.170;4.442;2023-02-04T02:40:39;47.05;;;19.48;;
25922;SDS011;13725;51.170;4.442;2023-02-04T02:43:05;53.28;;;21.08;;
25922;SDS011;13725;51.170;4.442;2023-02-04T02:45:33;43.03;;;19.45;;
25922;SDS011;13725;51.170;4.442;2023-02-04T02:48:00;46.63;;;19.98;;
25922;SDS011;13725;51.170;4.442;2023-02-04T02:50:29;47.55;;;19.08;;
25922;SDS011;13725;51.170;4.442;2023-02-04T02:52:58;44.88;;;20.23;;
25922;SDS011;13725;51.170;4.442;2023-02-04T02:55:24;46.88;;;20.70;;
25922;SDS011;13725;51.170;4.442;2023-02-04T02:57:52;54.20;;;21.25;;
25922;SDS011;13725;51.170;4.442;2023-02-04T03:00:26;52.70;;;21.23;;
25922;SDS011;13725;51.170;4.442;2023-02-04T03:02:56;48.38;;;20.27;;
25922;SDS011;13725;51.170;4.442;2023-02-04T03:05:29;50.53;;;19.33;;
25922;SDS011;13725;51.170;4.442;2023-02-04T03:07:58;59.10;;;21.27;;
25922;SDS011;13725;51.170;4.442;2023-02-04T03:10:24;60.35;;;21.38;;
25922;SDS011;13725;51.170;4.442;2023-02-04T03:12:50;45.70;;;20.58;;
25922;SDS011;13725;51.170;4.442;2023-02-04T03:15:16;54.83;;;22.23;;
25922;SDS011;13725;51.170;4.442;2023-02-04T03:17:44;51.47;;;21.17;;
25922;SDS011;13725;51.170;4.442;2023-02-04T03:20:11;50.03;;;20.27;;
25922;SDS011;13725;51.170;4.442;2023-02-04T03:22:38;55.05;;;21.55;;
25922;SDS011;13725;51.170;4.442;2023-02-04T03:25:04;55.92;;;20.00;;
25922;SDS011;13725;51.170;4.442;2023-02-04T03:27:30;52.08;;;20.02;;
25922;SDS011;13725;51.170;4.442;2023-02-04T03:29:56;47.58;;;19.67;;
25922;SDS011;13725;51.170;4.442;2023-02-04T03:32:22;50.65;;;20.13;;
25922;SDS011;13725;51.170;4.442;2023-02-04T03:34:48;58.47;;;19.67;;
25922;SDS011;13725;51.170;4.442;2023-02-04T03:37:13;55.67;;;21.98;;
25922;SDS011;13725;51.170;4.442;2023-02-04T03:39:39;56.25;;;20.33;;
25922;SDS011;13725;51.170;4.442;2023-02-04T03:42:05;48.65;;;19.35;;
25922;SDS011;13725;51.170;4.442;2023-02-04T03:44:30;49.85;;;20.98;;
25922;SDS011;13725;51.170;4.442;2023-02-04T03:46:56;59.03;;;21.55;;
25922;SDS011;13725;51.170;4.442;2023-02-04T03:49:22;60.58;;;23.48;;
25922;SDS011;13725;51.170;4.442;2023-02-04T03:51:48;61.60;;;21.80;;
25922;SDS011;13725;51.170;4.442;2023-02-04T03:54:14;55.88;;;23.15;;
25922;SDS011;13725;51.170;4.442;2023-02-04T03:56:39;55.78;;;22.60;;
25922;SDS011;13725;51.170;4.442;2023-02-04T03:59:05;51.13;;;22.00;;
25922;SDS011;13725;51.170;4.442;2023-02-04T04:01:31;58.72;;;22.77;;
25922;SDS011;13725;51.170;4.442;2023-02-04T04:03:56;55.63;;;22.25;;
25922;SDS011;13725;51.170;4.442;2023-02-04T04:06:24;64.25;;;22.95;;
25922;SDS011;13725;51.170;4.442;2023-02-04T04:08:50;56.15;;;22.25;;
25922;SDS011;13725;51.170;4.442;2023-02-04T04:11:16;63.80;;;24.88;;
25922;SDS011;13725;51.170;4.442;2023-02-04T04:13:41;67.32;;;25.20;;
25922;SDS011;13725;51.170;4.442;2023-02-04T04:16:07;68.63;;;23.55;;
25922;SDS011;13725;51.170;4.442;2023-02-04T04:18:33;69.15;;;25.25;;
25922;SDS011;13725;51.170;4.442;2023-02-04T04:20:59;66.80;;;25.90;;
25922;SDS011;13725;51.170;4.442;2023-02-04T04:23:25;59.95;;;22.73;;
25922;SDS011;13725;51.170;4.442;2023-02-04T04:25:51;73.60;;;24.40;;
25922;SDS011;13725;51.170;4.442;2023-02-04T04:28:17;62.90;;;22.83;;
25922;SDS011;13725;51.170;4.442;2023-02-04T04:30:43;59.63;;;21.65;;
25922;SDS011;13725;51.170;4.442;2023-02-04T04:33:09;56.63;;;21.92;;
25922;SDS011;13725;51.170;4.442;2023-02-04T04:35:34;64.00;;;22.25;;
25922;SDS011;13725;51.170;4.442;2023-02-04T04:38:00;60.10;;;20.85;;
25922;SDS011;13725;51.170;4.442;2023-02-04T04:40:27;58.47;;;19.65;;
25922;SDS011;13725;51.170;4.442;2023-02-04T04:42:53;49.53;;;19.42;;
25922;SDS011;13725;51.170;4.442;2023-02-04T04:45:19;57.45;;;21.30;;
25922;SDS011;13725;51.170;4.442;2023-02-04T04:47:45;59.58;;;19.88;;
25922;SDS011;13725;51.170;4.442;2023-02-04T04:50:11;65.57;;;20.42;;
25922;SDS011;13725;51.170;4.442;2023-02-04T04:52:36;57.17;;;20.27;;
25922;SDS011;13725;51.170;4.442;2023-02-04T04:55:02;50.85;;;21.45;;
25922;SDS011;13725;51.170;4.442;2023-02-04T04:57:29;74.20;;;22.13;;
25922;SDS011;13725;51.170;4.442;2023-02-04T04:59:55;68.07;;;22.20;;
25922;SDS011;13725;51.170;4.442;2023-02-04T05:02:21;77.93;;;23.30;;
25922;SDS011;13725;51.170;4.442;2023-02-04T05:04:47;75.45;;;24.20;;
25922;SDS011;13725;51.170;4.442;2023-02-04T05:07:12;72.28;;;23.98;;
25922;SDS011;13725;51.170;4.442;2023-02-04T05:09:38;70.38;;;24.05;;
25922;SDS011;13725;51.170;4.442;2023-02-04T05:12:04;74.28;;;24.48;;
25922;SDS011;13725;51.170;4.442;2023-02-04T05:14:30;71.15;;;25.05;;
25922;SDS011;13725;51.170;4.442;2023-02-04T05:16:56;60.83;;;23.33;;
25922;SDS011;13725;51.170;4.442;2023-02-04T05:19:21;73.93;;;24.63;;
25922;SDS011;13725;51.170;4.442;2023-02-04T05:21:47;69.95;;;24.98;;
25922;SDS011;13725;51.170;4.442;2023-02-04T05:24:13;86.88;;;27.33;;
25922;SDS011;13725;51.170;4.442;2023-02-04T05:26:40;93.45;;;28.85;;
25922;SDS011;13725;51.170;4.442;2023-02-04T05:29:06;91.97;;;28.88;;
25922;SDS011;13725;51.170;4.442;2023-02-04T05:31:32;83.07;;;28.45;;
25922;SDS011;13725;51.170;4.442;2023-02-04T05:33:58;96.78;;;28.92;;
25922;SDS011;13725;51.170;4.442;2023-02-04T05:36:24;100.88;;;29.10;;
25922;SDS011;13725;51.170;4.442;2023-02-04T05:38:49;106.22;;;31.70;;
25922;SDS011;13725;51.170;4.442;2023-02-04T05:41:15;86.93;;;29.63;;
25922;SDS011;13725;51.170;4.442;2023-02-04T05:43:41;94.80;;;29.40;;
25922;SDS011;13725;51.170;4.442;2023-02-04T05:46:07;93.00;;;28.33;;
25922;SDS011;13725;51.170;4.442;2023-02-04T05:48:33;89.07;;;28.15;;
25922;SDS011;13725;51.170;4.442;2023-02-04T05:50:58;83.55;;;25.83;;
25922;SDS011;13725;51.170;4.442;2023-02-04T05:53:24;85.40;;;25.17;;
25922;SDS011;13725;51.170;4.442;2023-02-04T05:55:50;80.88;;;26.60;;
25922;SDS011;13725;51.170;4.442;2023-02-04T05:58:15;100.15;;;27.13;;
25922;SDS011;13725;51.170;4.442;2023-02-04T06:00:41;81.85;;;26.10;;
25922;SDS011;13725;51.170;4.442;2023-02-04T06:03:06;87.75;;;25.90;;
25922;SDS011;13725;51.170;4.442;2023-02-04T06:05:32;85.93;;;25.90;;
25922;SDS011;13725;51.170;4.442;2023-02-04T06:07:58;95.10;;;26.58;;
25922;SDS011;13725;51.170;4.442;2023-02-04T06:10:23;92.20;;;26.23;;
25922;SDS011;13725;51.170;4.442;2023-02-04T06:12:51;87.80;;;26.38;;
25922;SDS011;13725;51.170;4.442;2023-02-04T06:15:17;90.05;;;27.48;;
25922;SDS011;13725;51.170;4.442;2023-02-04T06:17:43;103.72;;;28.20;;
25922;SDS011;13725;51.170;4.442;2023-02-04T06:20:09;105.72;;;28.95;;
25922;SDS011;13725;51.170;4.442;2023-02-04T06:22:37;103.55;;;28.08;;
25922;SDS011;13725;51.170;4.442;2023-02-04T06:25:02;112.60;;;28.35;;
25922;SDS011;13725;51.170;4.442;2023-02-04T06:27:28;115.45;;;27.42;;
25922;SDS011;13725;51.170;4.442;2023-02-04T06:29:54;102.93;;;28.25;;
25922;SDS011;13725;51.170;4.442;2023-02-04T06:32:21;100.22;;;26.13;;
25922;SDS011;13725;51.170;4.442;2023-02-04T06:34:47;101.60;;;29.10;;
25922;SDS011;13725;51.170;4.442;2023-02-04T06:37:12;102.63;;;28.83;;
25922;SDS011;13725;51.170;4.442;2023-02-04T06:39:39;113.80;;;27.55;;
25922;SDS011;13725;51.170;4.442;2023-02-04T06:42:05;99.32;;;26.63;;
25922;SDS011;13725;51.170;4.442;2023-02-04T06:44:31;100.18;;;26.67;;
25922;SDS011;13725;51.170;4.442;2023-02-04T06:46:57;90.32;;;24.88;;
25922;SDS011;13725;51.170;4.442;2023-02-04T06:49:22;96.10;;;26.10;;
25922;SDS011;13725;51.170;4.442;2023-02-04T06:51:49;87.82;;;26.67;;
25922;SDS011;13725;51.170;4.442;2023-02-04T06:54:15;95.47;;;24.63;;
25922;SDS011;13725;51.170;4.442;2023-02-04T06:56:41;72.13;;;24.40;;
25922;SDS011;13725;51.170;4.442;2023-02-04T06:59:08;75.57;;;21.90;;
25922;SDS011;13725;51.170;4.442;2023-02-04T07:01:34;65.40;;;21.45;;
25922;SDS011;13725;51.170;4.442;2023-02-04T07:04:00;77.90;;;22.63;;
25922;SDS011;13725;51.170;4.442;2023-02-04T07:06:26;67.13;;;20.70;;
25922;SDS011;13725;51.170;4.442;2023-02-04T07:08:51;62.95;;;21.42;;
25922;SDS011;13725;51.170;4.442;2023-02-04T07:11:17;59.10;;;19.77;;
25922;SDS011;13725;51.170;4.442;2023-02-04T07:13:43;59.70;;;19.45;;
25922;SDS011;13725;51.170;4.442;2023-02-04T07:16:09;58.17;;;20.42;;
25922;SDS011;13725;51.170;4.442;2023-02-04T07:18:37;61.72;;;21.45;;
25922;SDS011;13725;51.170;4.442;2023-02-04T07:21:03;62.78;;;18.90;;
25922;SDS011;13725;51.170;4.442;2023-02-04T07:23:29;62.33;;;20.55;;
25922;SDS011;13725;51.170;4.442;2023-02-04T07:25:56;76.00;;;22.13;;
25922;SDS011;13725;51.170;4.442;2023-02-04T07:28:23;61.65;;;20.73;;
25922;SDS011;13725;51.170;4.442;2023-02-04T07:30:49;65.85;;;22.25;;
25922;SDS011;13725;51.170;4.442;2023-02-04T07:33:15;64.78;;;21.33;;
25922;SDS011;13725;51.170;4.442;2023-02-04T07:35:41;81.65;;;23.35;;
25922;SDS011;13725;51.170;4.442;2023-02-04T07:38:07;72.78;;;24.17;;
25922;SDS011;13725;51.170;4.442;2023-02-04T07:40:32;84.28;;;25.10;;
25922;SDS011;13725;51.170;4.442;2023-02-04T07:43:00;83.18;;;24.23;;
25922;SDS011;13725;51.170;4.442;2023-02-04T07:45:27;74.43;;;23.70;;
25922;SDS011;13725;51.170;4.442;2023-02-04T07:47:55;81.80;;;26.83;;
25922;SDS011;13725;51.170;4.442;2023-02-04T07:50:20;79.90;;;27.17;;
25922;SDS011;13725;51.170;4.442;2023-02-04T07:52:49;79.82;;;26.25;;
25922;SDS011;13725;51.170;4.442;2023-02-04T07:55:14;89.18;;;27.33;;
25922;SDS011;13725;51.170;4.442;2023-02-04T07:57:41;94.47;;;28.58;;
25922;SDS011;13725;51.170;4.442;2023-02-04T08:00:07;104.07;;;29.38;;
25922;SDS011;13725;51.170;4.442;2023-02-04T08:02:40;113.50;;;32.45;;
25922;SDS011;13725;51.170;4.442;2023-02-04T08:05:07;99.43;;;30.38;;
25922;SDS011;13725;51.170;4.442;2023-02-04T08:07:33;119.78;;;31.63;;
25922;SDS011;13725;51.170;4.442;2023-02-04T08:09:59;124.82;;;31.15;;
25922;SDS011;13725;51.170;4.442;2023-02-04T08:12:25;120.47;;;31.10;;
25922;SDS011;13725;51.170;4.442;2023-02-04T08:14:50;113.97;;;31.08;;
25922;SDS011;13725;51.170;4.442;2023-02-04T08:17:16;124.47;;;34.00;;
25922;SDS011;13725;51.170;4.442;2023-02-04T08:19:44;112.57;;;31.23;;
25922;SDS011;13725;51.170;4.442;2023-02-04T08:22:09;122.20;;;31.85;;
25922;SDS011;13725;51.170;4.442;2023-02-04T08:24:36;120.82;;;30.85;;
25922;SDS011;13725;51.170;4.442;2023-02-04T08:27:02;122.55;;;30.55;;
25922;SDS011;13725;51.170;4.442;2023-02-04T08:29:27;121.00;;;29.13;;
25922;SDS011;13725;51.170;4.442;2023-02-04T08:31:53;107.80;;;29.20;;
25922;SDS011;13725;51.170;4.442;2023-02-04T08:34:19;104.05;;;27.75;;
25922;SDS011;13725;51.170;4.442;2023-02-04T08:36:44;91.28;;;27.17;;
25922;SDS011;13725;51.170;4.442;2023-02-04T08:39:10;92.22;;;26.10;;
25922;SDS011;13725;51.170;4.442;2023-02-04T08:41:39;88.78;;;24.85;;
25922;SDS011;13725;51.170;4.442;2023-02-04T08:44:05;86.00;;;25.92;;
25922;SDS011;13725;51.170;4.442;2023-02-04T08:46:30;82.75;;;23.98;;
25922;SDS011;13725;51.170;4.442;2023-02-04T08:48:56;91.68;;;26.35;;
25922;SDS011;13725;51.170;4.442;2023-02-04T08:51:22;79.93;;;25.13;;
25922;SDS011;13725;51.170;4.442;2023-02-04T08:53:48;75.40;;;24.55;;
25922;SDS011;13725;51.170;4.442;2023-02-04T08:56:13;68.75;;;21.70;;
25922;SDS011;13725;51.170;4.442;2023-02-04T08:58:44;74.93;;;23.58;;
25922;SDS011;13725;51.170;4.442;2023-02-04T09:01:10;76.00;;;24.42;;
25922;SDS011;13725;51.170;4.442;2023-02-04T09:03:37;80.03;;;23.92;;
25922;SDS011;13725;51.170;4.442;2023-02-04T09:06:03;66.30;;;21.45;;
25922;SDS011;13725;51.170;4.442;2023-02-04T09:08:29;77.75;;;21.38;;
25922;SDS011;13725;51.170;4.442;2023-02-04T09:10:55;61.75;;;20.45;;
25922;SDS011;13725;51.170;4.442;2023-02-04T09:13:22;55.95;;;19.40;;
25922;SDS011;13725;51.170;4.442;2023-02-04T09:15:48;56.20;;;18.85;;
25922;SDS011;13725;51.170;4.442;2023-02-04T09:18:14;60.50;;;19.58;;
25922;SDS011;13725;51.170;4.442;2023-02-04T09:20:42;67.85;;;20.77;;
25922;SDS011;13725;51.170;4.442;2023-02-04T09:23:09;73.30;;;22.70;;
25922;SDS011;13725;51.170;4.442;2023-02-04T09:25:37;74.13;;;22.50;;
25922;SDS011;13725;51.170;4.442;2023-02-04T09:28:03;83.10;;;23.63;;
25922;SDS011;13725;51.170;4.442;2023-02-04T09:30:29;86.15;;;24.17;;
25922;SDS011;13725;51.170;4.442;2023-02-04T09:32:55;83.05;;;23.17;;
25922;SDS011;13725;51.170;4.442;2023-02-04T09:35:21;72.38;;;22.50;;
25922;SDS011;13725;51.170;4.442;2023-02-04T09:37:46;82.65;;;24.70;;
25922;SDS011;13725;51.170;4.442;2023-02-04T09:40:13;80.32;;;25.23;;
25922;SDS011;13725;51.170;4.442;2023-02-04T09:42:41;74.68;;;22.75;;
25922;SDS011;13725;51.170;4.442;2023-02-04T09:45:12;78.10;;;23.38;;
25922;SDS011;13725;51.170;4.442;2023-02-04T09:47:46;73.78;;;23.17;;
25922;SDS011;13725;51.170;4.442;2023-02-04T09:50:13;70.07;;;21.88;;
25922;SDS011;13725;51.170;4.442;2023-02-04T09:52:42;71.05;;;21.23;;
25922;SDS011;13725;51.170;4.442;2023-02-04T09:55:16;67.55;;;21.80;;
25922;SDS011;13725;51.170;4.442;2023-02-04T09:57:46;59.35;;;20.30;;
25922;SDS011;13725;51.170;4.442;2023-02-04T10:02:41;62.45;;;19.90;;
25922;SDS011;13725;51.170;4.442;2023-02-04T10:05:08;67.22;;;19.67;;
25922;SDS011;13725;51.170;4.442;2023-02-04T10:07:41;75.72;;;21.52;;
25922;SDS011;13725;51.170;4.442;2023-02-04T10:10:17;71.00;;;21.08;;
25922;SDS011;13725;51.170;4.442;2023-02-04T10:12:46;80.80;;;23.30;;
25922;SDS011;13725;51.170;4.442;2023-02-04T10:15:13;74.70;;;21.77;;
25922;SDS011;13725;51.170;4.442;2023-02-04T10:17:40;59.88;;;20.30;;
25922;SDS011;13725;51.170;4.442;2023-02-04T10:20:16;61.80;;;19.25;;
25922;SDS011;13725;51.170;4.442;2023-02-04T10:22:47;54.22;;;18.23;;
25922;SDS011;13725;51.170;4.442;2023-02-04T10:25:18;51.65;;;16.55;;
25922;SDS011;13725;51.170;4.442;2023-02-04T10:27:50;54.55;;;17.88;;
25922;SDS011;13725;51.170;4.442;2023-02-04T10:30:27;57.05;;;17.95;;
25922;SDS011;13725;51.170;4.442;2023-02-04T10:35:51;37.78;;;15.65;;
25922;SDS011;13725;51.170;4.442;2023-02-04T10:38:22;41.58;;;15.52;;
25922;SDS011;13725;51.170;4.442;2023-02-04T10:40:58;47.35;;;16.83;;
25922;SDS011;13725;51.170;4.442;2023-02-04T10:43:28;42.20;;;15.18;;
25922;SDS011;13725;51.170;4.442;2023-02-04T10:45:57;44.97;;;17.77;;
25922;SDS011;13725;51.170;4.442;2023-02-04T10:48:25;46.50;;;18.35;;
25922;SDS011;13725;51.170;4.442;2023-02-04T10:50:54;36.17;;;14.50;;
25922;SDS011;13725;51.170;4.442;2023-02-04T10:53:22;35.22;;;13.95;;
25922;SDS011;13725;51.170;4.442;2023-02-04T10:56:27;28.42;;;11.25;;
25922;SDS011;13725;51.170;4.442;2023-02-04T10:58:53;25.77;;;10.55;;
25922;SDS011;13725;51.170;4.442;2023-02-04T11:01:20;33.15;;;12.52;;
25922;SDS011;13725;51.170;4.442;2023-02-04T11:03:45;27.77;;;11.77;;
25922;SDS011;13725;51.170;4.442;2023-02-04T11:06:14;26.00;;;11.55;;
25922;SDS011;13725;51.170;4.442;2023-02-04T11:08:46;28.60;;;11.82;;
25922;SDS011;13725;51.170;4.442;2023-02-04T11:18:55;25.25;;;11.63;;
25922;SDS011;13725;51.170;4.442;2023-02-04T11:21:27;25.67;;;11.75;;
25922;SDS011;13725;51.170;4.442;2023-02-04T11:26:42;26.05;;;11.45;;
25922;SDS011;13725;51.170;4.442;2023-02-04T11:31:55;22.25;;;10.75;;
25922;SDS011;13725;51.170;4.442;2023-02-04T11:39:15;17.73;;;8.88;;
25922;SDS011;13725;51.170;4.442;2023-02-04T11:41:43;20.30;;;10.13;;
25922;SDS011;13725;51.170;4.442;2023-02-04T11:44:10;18.85;;;9.68;;
25922;SDS011;13725;51.170;4.442;2023-02-04T11:46:37;9.98;;;6.63;;
25922;SDS011;13725;51.170;4.442;2023-02-04T11:49:03;8.95;;;5.25;;
25922;SDS011;13725;51.170;4.442;2023-02-04T11:51:36;6.68;;;4.68;;
25922;SDS011;13725;51.170;4.442;2023-02-04T11:54:01;7.45;;;4.57;;
25922;SDS011;13725;51.170;4.442;2023-02-04T11:56:28;5.60;;;4.07;;
25922;SDS011;13725;51.170;4.442;2023-02-04T11:58:55;6.50;;;3.55;;
25922;SDS011;13725;51.170;4.442;2023-02-04T12:01:23;4.97;;;3.45;;
25922;SDS011;13725;51.170;4.442;2023-02-04T12:03:58;4.38;;;3.10;;
25922;SDS011;13725;51.170;4.442;2023-02-04T12:06:29;3.78;;;3.00;;
25922;SDS011;13725;51.170;4.442;2023-02-04T12:09:06;4.10;;;3.03;;
25922;SDS011;13725;51.170;4.442;2023-02-04T12:11:52;7.70;;;3.25;;
25922;SDS011;13725;51.170;4.442;2023-02-04T12:14:36;7.35;;;3.42;;
25922;SDS011;13725;51.170;4.442;2023-02-04T12:17:17;6.15;;;3.58;;
25922;SDS011;13725;51.170;4.442;2023-02-04T12:19:44;9.77;;;3.72;;
25922;SDS011;13725;51.170;4.442;2023-02-04T12:22:12;7.18;;;4.40;;
25922;SDS011;13725;51.170;4.442;2023-02-04T12:24:39;9.25;;;4.30;;
25922;SDS011;13725;51.170;4.442;2023-02-04T12:27:05;6.40;;;4.20;;
25922;SDS011;13725;51.170;4.442;2023-02-04T12:29:31;6.65;;;4.22;;
25922;SDS011;13725;51.170;4.442;2023-02-04T12:31:57;7.07;;;4.10;;
25922;SDS011;13725;51.170;4.442;2023-02-04T12:34:22;9.32;;;5.20;;
25922;SDS011;13725;51.170;4.442;2023-02-04T12:36:48;8.65;;;4.97;;
25922;SDS011;13725;51.170;4.442;2023-02-04T12:39:14;11.65;;;5.78;;
25922;SDS011;13725;51.170;4.442;2023-02-04T12:41:40;11.43;;;6.25;;
25922;SDS011;13725;51.170;4.442;2023-02-04T12:44:05;12.48;;;6.45;;
25922;SDS011;13725;51.170;4.442;2023-02-04T12:46:31;12.80;;;5.88;;
25922;SDS011;13725;51.170;4.442;2023-02-04T12:48:57;13.60;;;6.85;;
25922;SDS011;13725;51.170;4.442;2023-02-04T12:51:22;11.85;;;6.72;;
25922;SDS011;13725;51.170;4.442;2023-02-04T12:53:49;14.43;;;6.40;;
25922;SDS011;13725;51.170;4.442;2023-02-04T12:56:15;13.50;;;6.82;;
25922;SDS011;13725;51.170;4.442;2023-02-04T12:58:40;12.80;;;6.60;;
25922;SDS011;13725;51.170;4.442;2023-02-04T13:01:06;12.75;;;6.00;;
25922;SDS011;13725;51.170;4.442;2023-02-04T13:03:32;15.10;;;6.85;;
25922;SDS011;13725;51.170;4.442;2023-02-04T13:05:58;13.50;;;6.75;;
25922;SDS011;13725;51.170;4.442;2023-02-04T13:08:24;16.05;;;7.40;;
25922;SDS011;13725;51.170;4.442;2023-02-04T13:10:49;15.15;;;7.57;;
25922;SDS011;13725;51.170;4.442;2023-02-04T13:13:16;14.15;;;7.45;;
25922;SDS011;13725;51.170;4.442;2023-02-04T13:15:43;14.27;;;7.70;;
25922;SDS011;13725;51.170;4.442;2023-02-04T13:18:09;12.73;;;7.38;;
25922;SDS011;13725;51.170;4.442;2023-02-04T13:20:35;13.07;;;7.25;;
25922;SDS011;13725;51.170;4.442;2023-02-04T13:23:03;12.43;;;6.68;;
25922;SDS011;13725;51.170;4.442;2023-02-04T13:25:29;14.55;;;8.27;;
25922;SDS011;13725;51.170;4.442;2023-02-04T13:27:56;16.00;;;7.45;;
25922;SDS011;13725;51.170;4.442;2023-02-04T13:30:21;13.43;;;7.20;;
25922;SDS011;13725;51.170;4.442;2023-02-04T13:32:47;13.23;;;7.65;;
25922;SDS011;13725;51.170;4.442;2023-02-04T13:35:13;19.33;;;7.88;;
25922;SDS011;13725;51.170;4.442;2023-02-04T13:37:38;15.85;;;7.47;;
25922;SDS011;13725;51.170;4.442;2023-02-04T13:40:04;17.60;;;6.90;;
25922;SDS011;13725;51.170;4.442;2023-02-04T13:42:31;13.70;;;6.38;;
25922;SDS011;13725;51.170;4.442;2023-02-04T13:44:57;14.30;;;6.32;;
25922;SDS011;13725;51.170;4.442;2023-02-04T13:47:23;14.88;;;7.15;;
25922;SDS011;13725;51.170;4.442;2023-02-04T13:49:49;18.33;;;7.25;;
25922;SDS011;13725;51.170;4.442;2023-02-04T13:52:15;11.88;;;6.90;;
25922;SDS011;13725;51.170;4.442;2023-02-04T13:54:42;19.48;;;7.50;;
25922;SDS011;13725;51.170;4.442;2023-02-04T13:57:08;16.08;;;7.28;;
25922;SDS011;13725;51.170;4.442;2023-02-04T13:59:37;15.57;;;8.50;;
25922;SDS011;13725;51.170;4.442;2023-02-04T14:02:03;26.02;;;9.57;;
25922;SDS011;13725;51.170;4.442;2023-02-04T14:04:29;23.02;;;9.70;;
25922;SDS011;13725;51.170;4.442;2023-02-04T14:06:54;19.42;;;8.25;;
25922;SDS011;13725;51.170;4.442;2023-02-04T14:09:20;17.02;;;7.55;;
25922;SDS011;13725;51.170;4.442;2023-02-04T14:11:47;16.27;;;6.85;;
25922;SDS011;13725;51.170;4.442;2023-02-04T14:14:12;13.73;;;6.30;;
25922;SDS011;13725;51.170;4.442;2023-02-04T14:16:38;13.13;;;7.78;;
25922;SDS011;13725;51.170;4.442;2023-02-04T14:19:04;12.10;;;7.45;;
25922;SDS011;13725;51.170;4.442;2023-02-04T14:21:31;17.27;;;8.15;;
25922;SDS011;13725;51.170;4.442;2023-02-04T14:23:57;20.33;;;9.25;;
25922;SDS011;13725;51.170;4.442;2023-02-04T14:26:23;19.60;;;8.80;;
25922;SDS011;13725;51.170;4.442;2023-02-04T14:28:48;19.55;;;8.27;;
25922;SDS011;13725;51.170;4.442;2023-02-04T14:31:14;17.50;;;7.65;;
25922;SDS011;13725;51.170;4.442;2023-02-04T14:33:40;15.93;;;7.22;;
25922;SDS011;13725;51.170;4.442;2023-02-04T14:36:06;13.52;;;7.07;;
25922;SDS011;13725;51.170;4.442;2023-02-04T14:38:32;11.48;;;7.03;;
25922;SDS011;13725;51.170;4.442;2023-02-04T14:40:58;34.85;;;8.80;;
25922;SDS011;13725;51.170;4.442;2023-02-04T14:43:24;12.77;;;6.43;;
25922;SDS011;13725;51.170;4.442;2023-02-04T14:45:50;11.90;;;6.68;;